sensor_id;sensor_type;location;lat;lon;timestamp;P1;durP1;ratioP1;P2;durP2;ratioP2
55758;SDS011;41678;52.126;20.664;2023-12-28T00:01:03;32.80;;;13.68;;
55758;SDS011;41678;52.126;20.664;2023-12-28T00:06:22;36.67;;;13.07;;
55758;SDS011;41678;52.126;20.664;2023-12-28T00:11:42;33.92;;;10.90;;
55758;SDS011;41678;52.126;20.664;2023-12-28T00:17:01;37.38;;;12.00;;
55758;SDS011;41678;52.126;20.664;2023-12-28T00:22:21;31.98;;;11.98;;
55758;SDS011;41678;52.126;20.664;2023-12-28T00:27:40;29.90;;;12.10;;
55758;SDS011;41678;52.126;20.664;2023-12-28T00:33:00;35.97;;;10.52;;
55758;SDS011;41678;52.126;20.664;2023-12-28T00:38:20;32.13;;;12.60;;
55758;SDS011;41678;52.126;20.664;2023-12-28T00:43:39;25.20;;;10.68;;
55758;SDS011;41678;52.126;20.664;2023-12-28T00:48:59;36.03;;;11.48;;
55758;SDS011;41678;52.126;20.664;2023-12-28T00:54:18;31.35;;;11.32;;
55758;SDS011;41678;52.126;20.664;2023-12-28T00:59:38;26.73;;;10.88;;
55758;SDS011;41678;52.126;20.664;2023-12-28T01:04:58;29.15;;;10.55;;
55758;SDS011;41678;52.126;20.664;2023-12-28T01:10:18;29.73;;;9.80;;
55758;SDS011;41678;52.126;20.664;2023-12-28T01:15:38;29.35;;;9.32;;
55758;SDS011;41678;52.126;20.664;2023-12-28T01:21:01;27.55;;;8.57;;
55758;SDS011;41678;52.126;20.664;2023-12-28T01:26:20;32.58;;;9.35;;
55758;SDS011;41678;52.126;20.664;2023-12-28T01:31:39;23.58;;;9.07;;
55758;SDS011;41678;52.126;20.664;2023-12-28T01:36:59;24.23;;;9.07;;
55758;SDS011;41678;52.126;20.664;2023-12-28T01:42:19;29.65;;;7.10;;
55758;SDS011;41678;52.126;20.664;2023-12-28T01:47:38;25.83;;;7.45;;
55758;SDS011;41678;52.126;20.664;2023-12-28T01:58:21;16.73;;;6.20;;
55758;SDS011;41678;52.126;20.664;2023-12-28T02:03:41;16.23;;;5.18;;
55758;SDS011;41678;52.126;20.664;2023-12-28T02:09:00;21.73;;;7.97;;
55758;SDS011;41678;52.126;20.664;2023-12-28T02:14:20;15.68;;;6.90;;
55758;SDS011;41678;52.126;20.664;2023-12-28T02:19:54;16.77;;;5.65;;
55758;SDS011;41678;52.126;20.664;2023-12-28T02:25:14;15.35;;;5.85;;
55758;SDS011;41678;52.126;20.664;2023-12-28T02:30:34;20.58;;;6.80;;
55758;SDS011;41678;52.126;20.664;2023-12-28T02:35:57;14.60;;;5.45;;
55758;SDS011;41678;52.126;20.664;2023-12-28T02:41:20;22.92;;;6.18;;
55758;SDS011;41678;52.126;20.664;2023-12-28T02:46:42;22.35;;;6.38;;
55758;SDS011;41678;52.126;20.664;2023-12-28T02:52:01;21.75;;;5.88;;
55758;SDS011;41678;52.126;20.664;2023-12-28T02:57:21;19.38;;;6.65;;
55758;SDS011;41678;52.126;20.664;2023-12-28T03:02:40;30.02;;;7.13;;
55758;SDS011;41678;52.126;20.664;2023-12-28T03:08:00;15.40;;;5.80;;
55758;SDS011;41678;52.126;20.664;2023-12-28T03:13:19;20.70;;;6.55;;
55758;SDS011;41678;52.126;20.664;2023-12-28T03:18:39;12.85;;;5.00;;
55758;SDS011;41678;52.126;20.664;2023-12-28T03:23:59;19.13;;;6.30;;
55758;SDS011;41678;52.126;20.664;2023-12-28T03:29:20;25.33;;;6.93;;
55758;SDS011;41678;52.126;20.664;2023-12-28T03:34:40;24.02;;;7.22;;
55758;SDS011;41678;52.126;20.664;2023-12-28T03:39:59;22.35;;;7.18;;
55758;SDS011;41678;52.126;20.664;2023-12-28T03:45:21;21.08;;;7.90;;
55758;SDS011;41678;52.126;20.664;2023-12-28T03:50:40;19.55;;;6.65;;
55758;SDS011;41678;52.126;20.664;2023-12-28T03:56:00;21.17;;;7.22;;
55758;SDS011;41678;52.126;20.664;2023-12-28T04:01:21;21.33;;;7.45;;
55758;SDS011;41678;52.126;20.664;2023-12-28T04:06:43;28.55;;;5.47;;
55758;SDS011;41678;52.126;20.664;2023-12-28T04:12:03;19.95;;;6.20;;
55758;SDS011;41678;52.126;20.664;2023-12-28T04:17:23;16.13;;;5.93;;
55758;SDS011;41678;52.126;20.664;2023-12-28T04:22:42;15.50;;;5.80;;
55758;SDS011;41678;52.126;20.664;2023-12-28T04:28:02;21.42;;;6.78;;
55758;SDS011;41678;52.126;20.664;2023-12-28T04:33:22;19.70;;;7.07;;
55758;SDS011;41678;52.126;20.664;2023-12-28T04:38:42;15.77;;;6.30;;
55758;SDS011;41678;52.126;20.664;2023-12-28T04:44:02;19.65;;;5.97;;
55758;SDS011;41678;52.126;20.664;2023-12-28T04:49:22;20.30;;;5.80;;
55758;SDS011;41678;52.126;20.664;2023-12-28T04:54:41;18.55;;;5.22;;
55758;SDS011;41678;52.126;20.664;2023-12-28T05:00:01;17.95;;;5.32;;
55758;SDS011;41678;52.126;20.664;2023-12-28T05:05:21;16.15;;;5.05;;
55758;SDS011;41678;52.126;20.664;2023-12-28T05:10:40;11.95;;;4.22;;
55758;SDS011;41678;52.126;20.664;2023-12-28T05:16:00;13.68;;;4.80;;
55758;SDS011;41678;52.126;20.664;2023-12-28T05:21:20;15.25;;;4.43;;
55758;SDS011;41678;52.126;20.664;2023-12-28T05:26:39;14.85;;;4.30;;
55758;SDS011;41678;52.126;20.664;2023-12-28T05:31:59;10.70;;;4.65;;
55758;SDS011;41678;52.126;20.664;2023-12-28T05:37:19;17.83;;;5.05;;
55758;SDS011;41678;52.126;20.664;2023-12-28T05:42:38;16.35;;;5.15;;
55758;SDS011;41678;52.126;20.664;2023-12-28T05:47:58;12.48;;;4.57;;
55758;SDS011;41678;52.126;20.664;2023-12-28T05:53:17;16.52;;;4.97;;
55758;SDS011;41678;52.126;20.664;2023-12-28T05:58:36;17.95;;;5.40;;
55758;SDS011;41678;52.126;20.664;2023-12-28T06:03:57;9.80;;;3.80;;
55758;SDS011;41678;52.126;20.664;2023-12-28T06:09:16;13.88;;;5.30;;
55758;SDS011;41678;52.126;20.664;2023-12-28T06:14:36;16.27;;;5.18;;
55758;SDS011;41678;52.126;20.664;2023-12-28T06:19:55;18.70;;;6.00;;
55758;SDS011;41678;52.126;20.664;2023-12-28T06:25:15;27.15;;;6.45;;
55758;SDS011;41678;52.126;20.664;2023-12-28T06:30:35;16.02;;;4.70;;
55758;SDS011;41678;52.126;20.664;2023-12-28T06:35:54;15.32;;;6.03;;
55758;SDS011;41678;52.126;20.664;2023-12-28T06:41:14;17.70;;;5.65;;
55758;SDS011;41678;52.126;20.664;2023-12-28T06:46:33;13.10;;;3.38;;
55758;SDS011;41678;52.126;20.664;2023-12-28T06:51:53;19.88;;;6.07;;
55758;SDS011;41678;52.126;20.664;2023-12-28T06:57:13;15.90;;;5.25;;
55758;SDS011;41678;52.126;20.664;2023-12-28T07:02:32;19.30;;;7.50;;
55758;SDS011;41678;52.126;20.664;2023-12-28T07:07:52;18.73;;;6.97;;
55758;SDS011;41678;52.126;20.664;2023-12-28T07:13:11;12.40;;;4.75;;
55758;SDS011;41678;52.126;20.664;2023-12-28T07:18:31;19.02;;;7.97;;
55758;SDS011;41678;52.126;20.664;2023-12-28T07:23:50;14.82;;;5.30;;
55758;SDS011;41678;52.126;20.664;2023-12-28T07:29:10;19.35;;;6.28;;
55758;SDS011;41678;52.126;20.664;2023-12-28T07:34:29;16.90;;;5.60;;
55758;SDS011;41678;52.126;20.664;2023-12-28T07:39:49;16.05;;;7.32;;
55758;SDS011;41678;52.126;20.664;2023-12-28T07:45:09;23.58;;;6.75;;
55758;SDS011;41678;52.126;20.664;2023-12-28T07:50:29;14.90;;;5.80;;
55758;SDS011;41678;52.126;20.664;2023-12-28T07:55:48;19.08;;;6.65;;
55758;SDS011;41678;52.126;20.664;2023-12-28T08:01:11;15.55;;;5.30;;
55758;SDS011;41678;52.126;20.664;2023-12-28T08:06:34;13.15;;;6.00;;
55758;SDS011;41678;52.126;20.664;2023-12-28T08:11:53;20.52;;;6.30;;
55758;SDS011;41678;52.126;20.664;2023-12-28T08:17:13;12.60;;;5.43;;
55758;SDS011;41678;52.126;20.664;2023-12-28T08:22:32;24.02;;;6.70;;
55758;SDS011;41678;52.126;20.664;2023-12-28T08:27:52;21.70;;;6.30;;
55758;SDS011;41678;52.126;20.664;2023-12-28T08:33:12;12.38;;;5.20;;
55758;SDS011;41678;52.126;20.664;2023-12-28T08:38:31;13.10;;;5.20;;
55758;SDS011;41678;52.126;20.664;2023-12-28T08:43:51;13.50;;;4.70;;
55758;SDS011;41678;52.126;20.664;2023-12-28T08:49:13;14.00;;;5.60;;
55758;SDS011;41678;52.126;20.664;2023-12-28T08:54:34;20.90;;;4.55;;
55758;SDS011;41678;52.126;20.664;2023-12-28T08:59:54;18.73;;;4.40;;
55758;SDS011;41678;52.126;20.664;2023-12-28T09:05:17;14.98;;;4.70;;
55758;SDS011;41678;52.126;20.664;2023-12-28T09:10:37;8.48;;;3.70;;
55758;SDS011;41678;52.126;20.664;2023-12-28T09:15:56;14.93;;;4.88;;
55758;SDS011;41678;52.126;20.664;2023-12-28T09:21:16;14.07;;;5.28;;
55758;SDS011;41678;52.126;20.664;2023-12-28T09:26:35;12.65;;;4.25;;
55758;SDS011;41678;52.126;20.664;2023-12-28T09:31:55;14.70;;;5.32;;
55758;SDS011;41678;52.126;20.664;2023-12-28T09:37:15;14.68;;;4.85;;
55758;SDS011;41678;52.126;20.664;2023-12-28T09:48:20;16.20;;;4.72;;
55758;SDS011;41678;52.126;20.664;2023-12-28T09:53:41;17.77;;;6.10;;
55758;SDS011;41678;52.126;20.664;2023-12-28T09:59:03;19.30;;;5.40;;
55758;SDS011;41678;52.126;20.664;2023-12-28T10:04:24;13.80;;;5.83;;
55758;SDS011;41678;52.126;20.664;2023-12-28T10:09:44;13.35;;;4.97;;
55758;SDS011;41678;52.126;20.664;2023-12-28T10:15:04;14.52;;;6.15;;
55758;SDS011;41678;52.126;20.664;2023-12-28T10:20:27;16.98;;;6.97;;
55758;SDS011;41678;52.126;20.664;2023-12-28T10:25:47;16.60;;;5.85;;
55758;SDS011;41678;52.126;20.664;2023-12-28T10:31:09;21.98;;;6.68;;
55758;SDS011;41678;52.126;20.664;2023-12-28T10:36:28;13.23;;;4.72;;
55758;SDS011;41678;52.126;20.664;2023-12-28T10:41:49;17.15;;;5.82;;
55758;SDS011;41678;52.126;20.664;2023-12-28T10:47:08;18.55;;;5.20;;
55758;SDS011;41678;52.126;20.664;2023-12-28T10:52:34;18.38;;;5.80;;
55758;SDS011;41678;52.126;20.664;2023-12-28T10:58:01;12.20;;;4.60;;
55758;SDS011;41678;52.126;20.664;2023-12-28T11:03:23;12.82;;;5.47;;
55758;SDS011;41678;52.126;20.664;2023-12-28T11:08:47;14.52;;;5.65;;
55758;SDS011;41678;52.126;20.664;2023-12-28T11:14:11;15.48;;;6.40;;
55758;SDS011;41678;52.126;20.664;2023-12-28T11:19:32;15.23;;;6.45;;
55758;SDS011;41678;52.126;20.664;2023-12-28T11:24:53;23.55;;;7.25;;
55758;SDS011;41678;52.126;20.664;2023-12-28T11:30:13;16.83;;;6.72;;
55758;SDS011;41678;52.126;20.664;2023-12-28T11:35:36;24.23;;;6.90;;
55758;SDS011;41678;52.126;20.664;2023-12-28T11:40:58;18.45;;;6.20;;
55758;SDS011;41678;52.126;20.664;2023-12-28T11:46:23;19.40;;;6.57;;
55758;SDS011;41678;52.126;20.664;2023-12-28T11:51:42;23.67;;;6.65;;
55758;SDS011;41678;52.126;20.664;2023-12-28T11:57:12;14.65;;;5.75;;
55758;SDS011;41678;52.126;20.664;2023-12-28T12:07:54;11.90;;;5.28;;
55758;SDS011;41678;52.126;20.664;2023-12-28T12:13:13;15.43;;;6.60;;
55758;SDS011;41678;52.126;20.664;2023-12-28T12:18:33;25.77;;;7.45;;
55758;SDS011;41678;52.126;20.664;2023-12-28T12:23:54;17.52;;;6.35;;
55758;SDS011;41678;52.126;20.664;2023-12-28T12:29:17;20.30;;;7.47;;
55758;SDS011;41678;52.126;20.664;2023-12-28T12:34:37;17.75;;;6.80;;
55758;SDS011;41678;52.126;20.664;2023-12-28T12:39:58;18.95;;;7.97;;
55758;SDS011;41678;52.126;20.664;2023-12-28T12:45:18;18.52;;;6.25;;
55758;SDS011;41678;52.126;20.664;2023-12-28T12:50:38;15.73;;;5.05;;
55758;SDS011;41678;52.126;20.664;2023-12-28T12:55:58;16.98;;;6.13;;
55758;SDS011;41678;52.126;20.664;2023-12-28T13:01:19;13.20;;;4.70;;
55758;SDS011;41678;52.126;20.664;2023-12-28T13:06:38;16.33;;;4.65;;
55758;SDS011;41678;52.126;20.664;2023-12-28T13:11:58;11.77;;;4.65;;
55758;SDS011;41678;52.126;20.664;2023-12-28T13:17:18;17.90;;;4.68;;
55758;SDS011;41678;52.126;20.664;2023-12-28T13:22:37;13.23;;;5.07;;
55758;SDS011;41678;52.126;20.664;2023-12-28T13:27:57;12.93;;;4.50;;
55758;SDS011;41678;52.126;20.664;2023-12-28T13:33:16;14.63;;;5.28;;
55758;SDS011;41678;52.126;20.664;2023-12-28T13:38:36;19.90;;;6.03;;
55758;SDS011;41678;52.126;20.664;2023-12-28T13:43:55;35.80;;;9.82;;
55758;SDS011;41678;52.126;20.664;2023-12-28T13:49:21;37.15;;;13.45;;
55758;SDS011;41678;52.126;20.664;2023-12-28T13:54:40;28.63;;;10.27;;
55758;SDS011;41678;52.126;20.664;2023-12-28T14:00:01;22.85;;;7.75;;
55758;SDS011;41678;52.126;20.664;2023-12-28T14:05:20;26.30;;;8.57;;
55758;SDS011;41678;52.126;20.664;2023-12-28T14:10:40;20.92;;;8.18;;
55758;SDS011;41678;52.126;20.664;2023-12-28T14:16:00;14.40;;;5.60;;
55758;SDS011;41678;52.126;20.664;2023-12-28T14:21:20;17.17;;;7.38;;
55758;SDS011;41678;52.126;20.664;2023-12-28T14:26:40;17.90;;;8.07;;
55758;SDS011;41678;52.126;20.664;2023-12-28T14:32:04;16.95;;;6.00;;
55758;SDS011;41678;52.126;20.664;2023-12-28T14:37:23;17.95;;;6.43;;
55758;SDS011;41678;52.126;20.664;2023-12-28T14:42:43;23.25;;;9.40;;
55758;SDS011;41678;52.126;20.664;2023-12-28T14:48:03;18.85;;;7.85;;
55758;SDS011;41678;52.126;20.664;2023-12-28T14:53:23;23.23;;;7.72;;
55758;SDS011;41678;52.126;20.664;2023-12-28T14:58:45;19.60;;;6.80;;
55758;SDS011;41678;52.126;20.664;2023-12-28T15:04:05;17.52;;;6.47;;
55758;SDS011;41678;52.126;20.664;2023-12-28T15:09:25;13.85;;;6.78;;
55758;SDS011;41678;52.126;20.664;2023-12-28T15:14:45;23.15;;;8.20;;
55758;SDS011;41678;52.126;20.664;2023-12-28T15:20:06;58.58;;;18.17;;
55758;SDS011;41678;52.126;20.664;2023-12-28T15:25:27;57.17;;;21.33;;
55758;SDS011;41678;52.126;20.664;2023-12-28T15:30:46;52.08;;;17.77;;
55758;SDS011;41678;52.126;20.664;2023-12-28T15:36:06;30.65;;;11.73;;
55758;SDS011;41678;52.126;20.664;2023-12-28T15:41:27;35.67;;;13.23;;
55758;SDS011;41678;52.126;20.664;2023-12-28T15:46:47;28.15;;;9.82;;
55758;SDS011;41678;52.126;20.664;2023-12-28T15:52:06;26.73;;;8.93;;
55758;SDS011;41678;52.126;20.664;2023-12-28T16:11:05;20.10;;;7.40;;
55758;SDS011;41678;52.126;20.664;2023-12-28T16:16:25;23.02;;;8.15;;
55758;SDS011;41678;52.126;20.664;2023-12-28T16:21:45;18.98;;;6.47;;
55758;SDS011;41678;52.126;20.664;2023-12-28T16:27:06;16.75;;;6.63;;
55758;SDS011;41678;52.126;20.664;2023-12-28T16:32:27;14.10;;;6.32;;
55758;SDS011;41678;52.126;20.664;2023-12-28T16:37:47;25.75;;;9.13;;
55758;SDS011;41678;52.126;20.664;2023-12-28T16:43:06;24.42;;;8.95;;
55758;SDS011;41678;52.126;20.664;2023-12-28T16:48:26;21.15;;;9.52;;
55758;SDS011;41678;52.126;20.664;2023-12-28T16:53:46;19.77;;;8.55;;
55758;SDS011;41678;52.126;20.664;2023-12-28T16:59:06;22.13;;;7.40;;
55758;SDS011;41678;52.126;20.664;2023-12-28T17:11:27;19.38;;;6.63;;
55758;SDS011;41678;52.126;20.664;2023-12-28T17:16:47;21.42;;;6.82;;
55758;SDS011;41678;52.126;20.664;2023-12-28T17:22:09;19.63;;;6.65;;
55758;SDS011;41678;52.126;20.664;2023-12-28T17:27:31;15.70;;;6.30;;
55758;SDS011;41678;52.126;20.664;2023-12-28T17:32:54;18.88;;;6.88;;
55758;SDS011;41678;52.126;20.664;2023-12-28T17:38:17;16.35;;;5.97;;
55758;SDS011;41678;52.126;20.664;2023-12-28T17:43:39;19.33;;;6.70;;
55758;SDS011;41678;52.126;20.664;2023-12-28T17:49:05;20.30;;;6.88;;
55758;SDS011;41678;52.126;20.664;2023-12-28T17:54:26;19.60;;;6.25;;
55758;SDS011;41678;52.126;20.664;2023-12-28T17:59:46;23.55;;;8.80;;
55758;SDS011;41678;52.126;20.664;2023-12-28T18:05:05;22.77;;;7.80;;
55758;SDS011;41678;52.126;20.664;2023-12-28T18:10:25;12.45;;;4.95;;
55758;SDS011;41678;52.126;20.664;2023-12-28T18:15:46;24.88;;;6.80;;
55758;SDS011;41678;52.126;20.664;2023-12-28T18:21:10;19.92;;;7.00;;
55758;SDS011;41678;52.126;20.664;2023-12-28T18:26:30;16.73;;;6.93;;
55758;SDS011;41678;52.126;20.664;2023-12-28T18:32:02;18.58;;;7.00;;
55758;SDS011;41678;52.126;20.664;2023-12-28T18:37:21;22.60;;;7.00;;
55758;SDS011;41678;52.126;20.664;2023-12-28T18:42:41;27.00;;;9.57;;
55758;SDS011;41678;52.126;20.664;2023-12-28T18:48:00;21.63;;;7.93;;
55758;SDS011;41678;52.126;20.664;2023-12-28T18:53:20;33.92;;;9.80;;
55758;SDS011;41678;52.126;20.664;2023-12-28T18:58:40;36.83;;;12.60;;
55758;SDS011;41678;52.126;20.664;2023-12-28T19:10:01;18.52;;;5.22;;
55758;SDS011;41678;52.126;20.664;2023-12-28T19:15:21;16.42;;;5.80;;
55758;SDS011;41678;52.126;20.664;2023-12-28T19:20:41;18.15;;;7.68;;
55758;SDS011;41678;52.126;20.664;2023-12-28T19:26:01;19.80;;;7.28;;
55758;SDS011;41678;52.126;20.664;2023-12-28T19:31:26;20.80;;;8.10;;
55758;SDS011;41678;52.126;20.664;2023-12-28T19:36:45;18.75;;;7.35;;
55758;SDS011;41678;52.126;20.664;2023-12-28T19:42:05;21.58;;;7.85;;
55758;SDS011;41678;52.126;20.664;2023-12-28T19:47:25;18.38;;;6.20;;
55758;SDS011;41678;52.126;20.664;2023-12-28T19:52:45;17.85;;;7.32;;
55758;SDS011;41678;52.126;20.664;2023-12-28T19:58:04;20.77;;;7.25;;
55758;SDS011;41678;52.126;20.664;2023-12-28T20:03:24;23.45;;;7.80;;
55758;SDS011;41678;52.126;20.664;2023-12-28T20:08:44;19.05;;;7.50;;
55758;SDS011;41678;52.126;20.664;2023-12-28T20:14:06;21.65;;;7.18;;
55758;SDS011;41678;52.126;20.664;2023-12-28T20:19:26;23.83;;;6.88;;
55758;SDS011;41678;52.126;20.664;2023-12-28T20:24:46;23.73;;;7.50;;
55758;SDS011;41678;52.126;20.664;2023-12-28T20:30:06;16.70;;;7.40;;
55758;SDS011;41678;52.126;20.664;2023-12-28T20:35:31;23.00;;;7.40;;
55758;SDS011;41678;52.126;20.664;2023-12-28T20:40:51;19.70;;;7.65;;
55758;SDS011;41678;52.126;20.664;2023-12-28T20:46:12;16.35;;;6.80;;
55758;SDS011;41678;52.126;20.664;2023-12-28T20:51:32;18.35;;;6.07;;
55758;SDS011;41678;52.126;20.664;2023-12-28T20:56:51;15.00;;;6.43;;
55758;SDS011;41678;52.126;20.664;2023-12-28T21:02:11;15.45;;;6.35;;
55758;SDS011;41678;52.126;20.664;2023-12-28T21:07:31;16.23;;;6.53;;
55758;SDS011;41678;52.126;20.664;2023-12-28T21:13:15;23.17;;;8.27;;
55758;SDS011;41678;52.126;20.664;2023-12-28T21:19:36;17.58;;;6.72;;
55758;SDS011;41678;52.126;20.664;2023-12-28T21:25:56;14.85;;;6.22;;
55758;SDS011;41678;52.126;20.664;2023-12-28T21:32:20;16.23;;;5.63;;
55758;SDS011;41678;52.126;20.664;2023-12-28T21:38:41;16.35;;;6.07;;
55758;SDS011;41678;52.126;20.664;2023-12-28T21:45:00;18.67;;;6.15;;
55758;SDS011;41678;52.126;20.664;2023-12-28T21:51:18;23.90;;;8.27;;
55758;SDS011;41678;52.126;20.664;2023-12-28T21:57:36;17.85;;;6.53;;
55758;SDS011;41678;52.126;20.664;2023-12-28T22:03:55;20.50;;;6.00;;
55758;SDS011;41678;52.126;20.664;2023-12-28T22:10:29;14.48;;;6.03;;
55758;SDS011;41678;52.126;20.664;2023-12-28T22:15:56;22.20;;;5.63;;
55758;SDS011;41678;52.126;20.664;2023-12-28T22:21:17;21.42;;;6.63;;
55758;SDS011;41678;52.126;20.664;2023-12-28T22:26:37;17.02;;;5.38;;
55758;SDS011;41678;52.126;20.664;2023-12-28T22:31:57;22.58;;;6.30;;
55758;SDS011;41678;52.126;20.664;2023-12-28T22:37:17;16.55;;;5.97;;
55758;SDS011;41678;52.126;20.664;2023-12-28T22:42:36;17.52;;;6.68;;
55758;SDS011;41678;52.126;20.664;2023-12-28T22:47:56;24.40;;;6.57;;
55758;SDS011;41678;52.126;20.664;2023-12-28T22:53:15;14.05;;;5.80;;
55758;SDS011;41678;52.126;20.664;2023-12-28T22:58:35;22.88;;;7.28;;
55758;SDS011;41678;52.126;20.664;2023-12-28T23:03:55;18.88;;;6.57;;
55758;SDS011;41678;52.126;20.664;2023-12-28T23:09:14;17.73;;;6.03;;
55758;SDS011;41678;52.126;20.664;2023-12-28T23:14:34;13.38;;;4.60;;
55758;SDS011;41678;52.126;20.664;2023-12-28T23:19:54;18.50;;;5.78;;
55758;SDS011;41678;52.126;20.664;2023-12-28T23:25:13;17.92;;;5.63;;
55758;SDS011;41678;52.126;20.664;2023-12-28T23:30:36;17.77;;;5.57;;
55758;SDS011;41678;52.126;20.664;2023-12-28T23:35:59;16.98;;;5.13;;
55758;SDS011;41678;52.126;20.664;2023-12-28T23:41:19;13.48;;;5.25;;
55758;SDS011;41678;52.126;20.664;2023-12-28T23:46:39;16.85;;;5.70;;
55758;SDS011;41678;52.126;20.664;2023-12-28T23:51:59;11.25;;;4.43;;
55758;SDS011;41678;52.126;20.664;2023-12-28T23:57:19;17.02;;;5.13;;
